Time;durP1;ratioP1;P1;durP2;ratioP2;P2;SDS_P1;SDS_P2;PMS_P1;PMS_P2;Temp;Humidity;BMP_temperature;BMP_pressure;BME280_temperature;BME280_humidity;BME280_pressure;Samples;Min_cycle;Max_cycle;Signal;HPM_P1;HPM_P2
2021/06/17 00:00:45;;;;;;;5.30;2.80;;;;;;;28.47;35.83;94668.13;5054586;28;20048;-43
2021/06/17 00:03:35;;;;;;;3.70;2.97;;;;;;;28.40;36.07;94662.03;5012842;28;20056;-43
2021/06/17 00:06:02;;;;;;;5.18;2.92;;;;;;;28.66;35.64;94666.88;5012399;28;20369;-42
2021/06/17 00:08:29;;;;;;;4.72;2.58;;;;;;;29.13;34.75;94659.22;5012570;28;20053;-43
2021/06/17 00:10:57;;;;;;;3.33;2.40;;;;;;;28.81;35.18;94670.22;5012642;28;20060;-42
2021/06/17 00:13:27;;;;;;;3.67;2.53;;;;;;;28.45;35.53;94664.31;5023182;28;20061;-43
2021/06/17 00:15:57;;;;;;;4.18;2.67;;;;;;;28.93;34.99;94658.25;5019463;28;20518;-43
2021/06/17 00:18:25;;;;;;;3.72;2.53;;;;;;;28.98;34.55;94655.91;5012503;28;20404;-43
2021/06/17 00:20:52;;;;;;;3.65;2.20;;;;;;;29.05;34.36;94660.47;5012891;28;20050;-44
2021/06/17 00:23:20;;;;;;;4.53;2.38;;;;;;;29.03;34.02;94660.84;5011732;28;20053;-42
2021/06/17 00:25:47;;;;;;;3.53;2.45;;;;;;;28.41;35.14;94658.19;5011277;28;20048;-41
2021/06/17 00:28:14;;;;;;;3.38;2.60;;;;;;;28.34;35.47;94655.53;5012413;28;20053;-43
2021/06/17 00:30:42;;;;;;;3.38;2.60;;;;;;;28.41;34.91;94658.19;5012494;28;20061;-43
2021/06/17 00:33:09;;;;;;;3.65;2.67;;;;;;;28.60;34.74;94656.91;5012626;28;20054;-44
2021/06/17 00:35:36;;;;;;;5.78;2.47;;;;;;;28.08;35.41;94648.72;5047480;28;20367;-44
2021/06/17 00:38:04;;;;;;;3.28;2.47;;;;;;;28.50;34.76;94656.59;5053959;28;20048;-45
2021/06/17 00:40:33;;;;;;;3.38;2.55;;;;;;;28.32;34.68;94644.41;5054228;28;20057;-43
2021/06/17 00:43:01;;;;;;;4.32;2.67;;;;;;;28.36;34.82;94642.44;5052705;28;20522;-43
2021/06/17 00:45:32;;;;;;;4.03;2.55;;;;;;;27.99;35.22;94641.09;5054062;28;20067;-44
2021/06/17 00:48:00;;;;;;;5.65;2.85;;;;;;;28.17;35.27;94633.72;5054565;28;20033;-42
2021/06/17 00:50:52;;;;;;;3.45;2.65;;;;;;;28.13;35.21;94638.34;5058079;28;20049;-43
2021/06/17 00:53:24;;;;;;;7.03;2.55;;;;;;;28.39;34.33;94633.63;5058254;28;20056;-42
2021/06/17 00:55:51;;;;;;;5.95;2.90;;;;;;;27.88;35.40;94637.69;5057890;28;20048;-42
2021/06/17 00:58:18;;;;;;;4.45;2.58;;;;;;;28.07;35.30;94634.50;5057609;28;20049;-44
2021/06/17 01:00:46;;;;;;;5.63;2.80;;;;;;;27.98;35.03;94631.50;5040435;28;20487;-43
2021/06/17 01:03:13;;;;;;;3.13;2.60;;;;;;;27.55;35.85;94631.59;5057638;28;20044;-44
2021/06/17 01:05:43;;;;;;;4.85;2.50;;;;;;;28.43;34.04;94627.06;5057633;28;20059;-44
2021/06/17 01:08:35;;;;;;;4.30;2.58;;;;;;;27.90;35.32;94621.94;5038949;28;20348;-43
2021/06/17 01:11:02;;;;;;;8.85;2.88;;;;;;;27.83;34.99;94617.34;5040109;28;20057;-43
2021/06/17 01:14:17;;;;;;;6.07;2.85;;;;;;;27.97;34.96;94613.84;5057290;28;20060;-43
2021/06/17 01:16:47;;;;;;;4.40;3.00;;;;;;;28.30;33.90;94622.53;5034747;28;20056;-45
2021/06/17 01:19:32;;;;;;;5.53;2.78;;;;;;;27.77;34.79;94612.78;5047138;28;20051;-45
2021/06/17 01:22:05;;;;;;;4.60;2.85;;;;;;;27.81;34.55;94619.66;5056051;28;20053;-43
2021/06/17 01:25:03;;;;;;;3.53;2.72;;;;;;;27.78;35.06;94612.38;5042922;28;20048;-43
2021/06/17 01:27:55;;;;;;;7.97;2.83;;;;;;;27.68;34.95;94615.88;5057599;28;20045;-42
2021/06/17 01:30:22;;;;;;;3.10;2.60;;;;;;;27.58;34.81;94617.41;5057033;28;20056;-42
2021/06/17 01:32:58;;;;;;;4.72;2.70;;;;;;;27.63;35.10;94621.66;5039821;28;20056;-44
2021/06/17 01:35:28;;;;;;;5.57;3.10;;;;;;;27.46;35.31;94617.81;5056380;28;20069;-43
2021/06/17 01:38:01;;;;;;;5.82;3.30;;;;;;;27.56;34.89;94621.63;5039642;28;20059;-43
2021/06/17 01:40:30;;;;;;;6.13;2.90;;;;;;;27.69;34.33;94622.03;5039344;28;20053;-42
2021/06/17 01:42:58;;;;;;;5.25;2.90;;;;;;;27.71;34.64;94625.06;5056011;28;20060;-42
2021/06/17 01:45:26;;;;;;;5.40;3.33;;;;;;;27.71;34.56;94617.78;5055184;28;20053;-43
2021/06/17 01:47:54;;;;;;;4.13;3.03;;;;;;;27.37;35.28;94614.78;5056964;28;20048;-43
2021/06/17 01:50:25;;;;;;;5.75;3.70;;;;;;;27.38;35.58;94623.63;5039143;28;20044;-42
2021/06/17 01:52:53;;;;;;;4.75;3.22;;;;;;;27.76;35.40;94613.94;5039630;28;20056;-45
2021/06/17 01:55:22;;;;;;;3.53;3.20;;;;;;;27.67;35.94;94616.28;5057039;28;20044;-43
2021/06/17 01:57:49;;;;;;;5.88;3.63;;;;;;;27.30;37.08;94614.78;5056639;28;20045;-42
2021/06/17 02:00:16;;;;;;;4.50;3.65;;;;;;;27.89;36.02;94613.13;5038448;28;20056;-44
2021/06/17 02:02:45;;;;;;;5.15;4.05;;;;;;;27.83;36.58;94611.97;5039244;28;20379;-43
2021/06/17 02:05:13;;;;;;;7.45;4.03;;;;;;;27.85;36.35;94607.00;5053610;28;20364;-43
2021/06/17 02:07:42;;;;;;;4.50;3.92;;;;;;;27.61;36.97;94605.13;5052076;28;20439;-43
2021/06/17 02:10:18;;;;;;;5.80;3.75;;;;;;;27.77;36.50;94605.47;5038947;28;20045;-42
2021/06/17 02:12:46;;;;;;;3.80;3.47;;;;;;;27.96;35.84;94606.94;5043217;28;20053;-44
2021/06/17 02:15:14;;;;;;;4.35;3.50;;;;;;;27.88;35.97;94600.06;5072347;28;20287;-43
2021/06/17 02:17:44;;;;;;;6.60;3.92;;;;;;;27.19;36.72;94608.69;5058887;28;20060;-43
2021/06/17 02:20:13;;;;;;;3.88;3.45;;;;;;;27.73;35.40;94604.72;5056103;28;20045;-44
2021/06/17 02:22:44;;;;;;;5.05;3.53;;;;;;;27.22;36.12;94613.28;5038907;28;20452;-42
2021/06/17 02:25:15;;;;;;;5.50;3.90;;;;;;;27.33;35.87;94608.69;5038966;28;20053;-44
2021/06/17 02:27:44;;;;;;;6.38;3.90;;;;;;;27.23;35.65;94607.53;5056159;28;20049;-45
2021/06/17 02:30:14;;;;;;;5.88;3.85;;;;;;;27.83;34.87;94608.53;5038394;28;20051;-44
2021/06/17 02:32:49;;;;;;;6.47;3.45;;;;;;;27.56;34.91;94605.53;5038517;28;20480;-42
2021/06/17 02:35:20;;;;;;;5.82;3.95;;;;;;;27.81;34.97;94608.91;5038519;28;20056;-42
2021/06/17 02:37:55;;;;;;;4.97;3.83;;;;;;;27.34;35.29;94610.22;5055879;28;20435;-42
2021/06/17 02:40:24;;;;;;;5.30;4.03;;;;;;;27.63;34.75;94617.06;5038112;28;20056;-42
2021/06/17 02:42:56;;;;;;;5.38;3.20;;;;;;;27.12;35.89;94611.38;5040057;28;20059;-43
2021/06/17 02:45:29;;;;;;;5.30;3.80;;;;;;;27.61;34.71;94608.59;5055949;28;20051;-42
2021/06/17 02:47:57;;;;;;;5.18;3.35;;;;;;;27.55;34.94;94610.13;5053288;28;20057;-42
2021/06/17 02:50:25;;;;;;;7.05;3.42;;;;;;;27.59;35.01;94597.47;5052195;28;20048;-44
2021/06/17 02:52:52;;;;;;;9.52;3.60;;;;;;;28.05;33.97;94611.88;5055260;28;20060;-43
2021/06/17 02:55:19;;;;;;;8.40;3.53;;;;;;;28.20;33.45;94611.41;5055384;28;20052;-43
2021/06/17 02:58:23;;;;;;;5.40;3.55;;;;;;;27.22;35.47;94607.91;5055435;28;20052;-46
2021/06/17 03:00:58;;;;;;;6.50;3.33;;;;;;;27.65;34.40;94608.59;5054491;28;20049;-43
2021/06/17 03:03:44;;;;;;;5.75;3.33;;;;;;;27.49;34.67;94606.31;5038125;28;20052;-43
2021/06/17 03:06:28;;;;;;;5.47;3.08;;;;;;;27.34;35.01;94610.22;5055678;28;20059;-43
2021/06/17 03:08:57;;;;;;;5.57;2.95;;;;;;;27.84;33.72;94604.69;5036453;28;20048;-42
2021/06/17 03:11:31;;;;;;;6.20;3.20;;;;;;;27.84;33.82;94607.38;5054312;28;20056;-43
2021/06/17 03:14:02;;;;;;;6.53;2.95;;;;;;;27.56;34.42;94616.25;5054340;28;20060;-43
2021/06/17 03:16:31;;;;;;;5.80;2.70;;;;;;;27.21;35.30;94607.16;5055826;28;20053;-42
2021/06/17 03:18:59;;;;;;;4.55;3.00;;;;;;;27.42;34.86;94611.72;5037460;28;20748;-43
2021/06/17 03:21:33;;;;;;;8.35;3.63;;;;;;;27.38;35.09;94610.97;5055053;28;20052;-43
2021/06/17 03:24:02;;;;;;;4.55;3.65;;;;;;;27.44;35.33;94620.13;5055254;28;20045;-43
2021/06/17 03:26:31;;;;;;;4.22;3.40;;;;;;;27.44;35.34;94616.69;5037129;28;20466;-42
2021/06/17 03:28:59;;;;;;;5.28;3.60;;;;;;;27.30;35.44;94628.97;5053753;28;20044;-42
2021/06/17 03:31:28;;;;;;;6.82;3.70;;;;;;;27.55;35.00;94626.22;5036492;28;20356;-45
2021/06/17 03:34:00;;;;;;;4.00;3.40;;;;;;;27.74;34.70;94624.28;5037644;28;20055;-43
2021/06/17 03:36:31;;;;;;;5.75;3.60;;;;;;;27.17;35.79;94616.34;5055218;28;20053;-42
2021/06/17 03:38:58;;;;;;;4.47;3.30;;;;;;;27.20;35.27;94626.31;5037177;28;20052;-42
2021/06/17 03:41:26;;;;;;;5.18;3.30;;;;;;;27.67;34.50;94635.84;5037153;28;20057;-42
2021/06/17 03:43:54;;;;;;;4.30;3.45;;;;;;;27.60;34.59;94636.59;5053776;28;20044;-42
2021/06/17 03:46:22;;;;;;;5.38;3.17;;;;;;;27.67;34.58;94637.75;5055012;28;20052;-42
2021/06/17 03:48:49;;;;;;;5.78;3.13;;;;;;;27.45;35.04;94645.84;5037139;28;20380;-42
2021/06/17 03:51:16;;;;;;;5.93;3.35;;;;;;;27.60;34.58;94651.94;5036909;28;20064;-42
2021/06/17 03:53:45;;;;;;;4.50;3.10;;;;;;;27.16;35.60;94653.16;5037200;28;20047;-45
2021/06/17 03:56:13;;;;;;;4.63;3.50;;;;;;;27.66;35.04;94655.03;5037291;28;20056;-44
2021/06/17 03:58:43;;;;;;;4.25;3.03;;;;;;;27.26;35.53;94643.56;5054465;28;20053;-42
2021/06/17 04:01:11;;;;;;;5.30;3.00;;;;;;;27.56;34.95;94654.63;5036845;28;20048;-43
2021/06/17 04:03:39;;;;;;;3.55;3.15;;;;;;;27.34;35.64;94653.16;5037293;28;20075;-42
2021/06/17 04:06:10;;;;;;;5.72;3.10;;;;;;;27.32;35.82;94656.22;5051214;28;20056;-42
2021/06/17 04:08:41;;;;;;;5.90;2.90;;;;;;;27.91;34.41;94653.03;5034724;28;20049;-43
2021/06/17 04:11:10;;;;;;;5.72;3.00;;;;;;;28.03;34.43;94649.88;5030144;28;20045;-45
2021/06/17 04:13:40;;;;;;;6.05;3.10;;;;;;;28.52;33.48;94662.34;5027111;28;20080;-71
2021/06/17 04:16:13;;;;;;;3.65;3.15;;;;;;;27.56;35.61;94664.59;5070105;28;20053;-52
2021/06/17 04:18:42;;;;;;;5.45;3.10;;;;;;;27.66;35.14;94668.44;5057200;28;20063;-56
2021/06/17 04:21:11;;;;;;;6.07;3.47;;;;;;;27.41;35.90;94663.88;5053092;28;20041;-47
2021/06/17 04:23:40;;;;;;;4.03;3.40;;;;;;;28.18;34.43;94662.13;5053179;28;20052;-51
2021/06/17 04:26:08;;;;;;;5.50;3.47;;;;;;;27.74;35.59;94659.97;5054424;28;20056;-52
2021/06/17 04:28:35;;;;;;;4.88;3.55;;;;;;;27.81;35.36;94669.94;5053386;28;20052;-56
2021/06/17 04:31:03;;;;;;;6.68;4.45;;;;;;;28.07;35.35;94666.75;5049408;28;20051;-50
2021/06/17 04:33:31;;;;;;;6.10;4.20;;;;;;;28.31;34.71;94675.13;5036828;28;20060;-45
2021/06/17 04:36:02;;;;;;;5.97;4.63;;;;;;;28.42;34.79;94675.84;5054360;28;20049;-47
2021/06/17 04:38:29;;;;;;;6.28;5.10;;;;;;;28.19;34.93;94679.78;5036675;28;20055;-51
2021/06/17 04:40:58;;;;;;;6.28;5.68;;;;;;;28.77;34.17;94681.00;5053622;28;20051;-49
2021/06/17 04:43:25;;;;;;;16.90;6.97;;;;;;;28.41;34.97;94679.69;5044004;28;20056;-49
2021/06/17 04:45:54;;;;;;;9.48;7.63;;;;;;;28.20;35.76;94670.56;5054505;28;20368;-46
2021/06/17 04:48:26;;;;;;;8.65;7.80;;;;;;;28.18;35.67;94672.88;5069823;28;20634;-47
2021/06/17 04:50:54;;;;;;;9.98;8.07;;;;;;;28.10;36.87;94679.41;5051953;28;20478;-52
2021/06/17 04:53:23;;;;;;;14.32;9.10;;;;;;;28.43;36.88;94680.06;5034701;28;20069;-49
2021/06/17 04:55:54;;;;;;;9.18;8.25;;;;;;;28.77;35.80;94681.00;5037486;28;20045;-55
2021/06/17 04:58:24;;;;;;;14.02;8.55;;;;;;;29.14;35.05;94683.06;5054134;28;20072;-45
2021/06/17 05:00:51;;;;;;;9.85;8.95;;;;;;;29.63;34.36;94685.72;5053735;28;20041;-45
2021/06/17 05:03:19;;;;;;;10.27;9.23;;;;;;;30.34;33.25;94690.34;5054150;28;20056;-46
2021/06/17 05:05:49;;;;;;;9.55;8.05;;;;;;;29.46;34.21;94682.81;5052477;28;20040;-46
2021/06/17 05:11:05;;;;;;;11.13;9.25;;;;;;;28.96;35.59;94684.38;5031893;28;20041;-57
2021/06/17 05:13:33;;;;;;;10.57;9.15;;;;;;;30.33;33.18;94694.22;5026963;28;20053;-51
2021/06/17 05:16:02;;;;;;;10.65;9.65;;;;;;;30.56;32.81;94686.19;5051094;28;20040;-46
2021/06/17 05:18:29;;;;;;;9.90;8.75;;;;;;;30.91;32.09;94687.63;5032135;28;20052;-69
2021/06/17 05:20:58;;;;;;;11.32;8.52;;;;;;;30.69;32.52;94695.28;5031859;28;20157;-60
2021/06/17 05:23:27;;;;;;;10.65;9.50;;;;;;;30.86;33.08;94690.81;5032121;28;20476;-47
2021/06/17 05:25:56;;;;;;;9.82;8.82;;;;;;;31.08;31.99;94693.94;5031725;28;20065;-47
2021/06/17 05:28:25;;;;;;;9.98;8.98;;;;;;;31.60;30.94;94696.19;5031169;28;20541;-45
2021/06/17 05:30:54;;;;;;;9.48;8.48;;;;;;;31.46;31.24;94707.25;5031557;28;20064;-46
2021/06/17 05:33:22;;;;;;;9.20;8.27;;;;;;;31.71;31.50;94707.59;5031824;28;20049;-46
2021/06/17 05:35:50;;;;;;;7.80;7.00;;;;;;;31.69;31.39;94712.63;5034263;28;20460;-46
2021/06/17 05:38:19;;;;;;;10.27;7.47;;;;;;;31.12;32.42;94710.09;5034549;28;20053;-45
2021/06/17 05:40:47;;;;;;;8.75;7.13;;;;;;;31.37;31.70;94721.28;5018466;28;20045;-45
2021/06/17 05:43:14;;;;;;;7.60;6.75;;;;;;;31.06;32.16;94720.59;5039090;28;20061;-46
2021/06/17 05:45:42;;;;;;;8.68;6.90;;;;;;;31.44;31.68;94731.97;5057303;28;20045;-46
2021/06/17 05:48:09;;;;;;;8.60;6.68;;;;;;;31.74;31.09;94725.69;5052599;28;20360;-55
2021/06/17 05:50:38;;;;;;;8.27;7.10;;;;;;;31.75;30.77;94729.94;5037124;28;20049;-47
2021/06/17 05:53:06;;;;;;;9.20;7.20;;;;;;;31.99;30.79;94725.22;5037267;28;20432;-64
2021/06/17 05:55:33;;;;;;;9.27;8.02;;;;;;;32.12;30.10;94726.16;5037201;28;20061;-70
2021/06/17 05:58:01;;;;;;;11.77;7.57;;;;;;;31.83;30.44;94731.34;5051824;28;20486;-46
2021/06/17 06:00:28;;;;;;;7.75;6.95;;;;;;;32.01;30.40;94722.91;5039232;28;20064;-49
2021/06/17 06:02:56;;;;;;;7.32;6.63;;;;;;;31.79;31.21;94729.88;5056975;28;20045;-46
2021/06/17 06:05:23;;;;;;;11.35;7.47;;;;;;;31.95;30.16;94731.88;5056905;28;20333;-66
2021/06/17 06:08:01;;;;;;;10.60;6.72;;;;;;;32.30;29.60;94731.25;5035529;28;20045;-46
2021/06/17 06:10:29;;;;;;;8.07;6.40;;;;;;;32.46;29.22;94731.28;5049156;28;20058;-52
2021/06/17 06:12:56;;;;;;;7.30;6.50;;;;;;;32.24;29.92;94724.00;5043454;28;20057;-47
2021/06/17 06:15:33;;;;;;;10.18;6.57;;;;;;;32.29;29.58;94729.72;5056778;28;20052;-46
2021/06/17 06:18:14;;;;;;;7.38;6.68;;;;;;;32.61;28.98;94722.88;5055383;28;20045;-46
2021/06/17 06:20:45;;;;;;;7.32;6.47;;;;;;;32.24;29.71;94716.63;5038107;28;20053;-45
2021/06/17 06:23:12;;;;;;;8.48;6.07;;;;;;;32.17;30.27;94722.19;5043867;28;20049;-45
2021/06/17 06:25:48;;;;;;;10.55;6.60;;;;;;;32.02;31.42;94718.25;5042519;28;20060;-46
2021/06/17 06:28:17;;;;;;;7.40;6.40;;;;;;;32.57;29.16;94722.22;5052571;28;20052;-46
2021/06/17 06:30:44;;;;;;;6.43;5.82;;;;;;;33.41;28.59;94726.91;5056418;28;20053;-48
2021/06/17 06:33:11;;;;;;;6.80;5.97;;;;;;;33.37;28.69;94718.13;5051432;28;20046;-47
2021/06/17 06:35:38;;;;;;;7.43;6.03;;;;;;;32.61;30.35;94715.53;5052370;28;20056;-46
2021/06/17 06:38:06;;;;;;;7.63;5.63;;;;;;;34.01;27.86;94724.63;5055997;28;20371;-46
2021/06/17 06:40:34;;;;;;;7.85;5.32;;;;;;;33.42;28.55;94725.72;5043871;28;20356;-48
2021/06/17 06:43:01;;;;;;;7.85;6.35;;;;;;;34.18;27.80;94726.09;5043529;28;20376;-47
2021/06/17 06:45:28;;;;;;;6.28;4.85;;;;;;;33.36;29.33;94722.00;5055749;28;20460;-47
2021/06/17 06:47:55;;;;;;;7.68;5.85;;;;;;;34.70;26.69;94727.75;5021792;28;20375;-46
2021/06/17 06:50:23;;;;;;;7.15;5.68;;;;;;;33.97;27.61;94721.25;5055932;28;20048;-46
2021/06/17 06:52:50;;;;;;;6.85;5.47;;;;;;;34.79;27.08;94719.72;5056333;28;20400;-46
2021/06/17 06:55:18;;;;;;;7.20;4.90;;;;;;;34.62;27.54;94727.22;5055971;28;20051;-47
2021/06/17 06:57:45;;;;;;;7.18;4.60;;;;;;;35.53;25.32;94729.50;5054856;28;20052;-47
2021/06/17 07:00:14;;;;;;;9.45;4.90;;;;;;;34.96;26.77;94727.81;5055568;28;20072;-48
2021/06/17 07:02:41;;;;;;;6.15;4.30;;;;;;;34.52;27.19;94722.06;5055855;28;20052;-47
2021/06/17 07:05:09;;;;;;;7.20;3.83;;;;;;;34.54;27.25;94725.13;5055437;28;20057;-47
2021/06/17 07:07:37;;;;;;;7.72;3.80;;;;;;;35.20;26.46;94723.56;5055484;28;20041;-46
2021/06/17 07:10:08;;;;;;;4.80;3.38;;;;;;;35.27;26.39;94714.41;5054684;28;20049;-66
2021/06/17 07:12:35;;;;;;;3.80;3.22;;;;;;;34.71;26.83;94718.41;5051473;28;20048;-46
2021/06/17 07:15:05;;;;;;;3.10;2.80;;;;;;;35.35;25.97;94726.59;5054468;28;20060;-49
2021/06/17 07:17:34;;;;;;;5.75;3.25;;;;;;;35.48;25.23;94727.34;5053858;28;20052;-46
2021/06/17 07:20:01;;;;;;;5.20;3.10;;;;;;;35.30;26.39;94724.41;5053729;28;20053;-46
2021/06/17 07:22:28;;;;;;;4.15;3.20;;;;;;;34.93;27.07;94727.47;5053939;28;20071;-47
2021/06/17 07:24:55;;;;;;;3.80;2.70;;;;;;;35.34;26.49;94725.81;5054134;28;20053;-47
2021/06/17 07:27:25;;;;;;;4.35;3.15;;;;;;;36.37;25.73;94727.78;5052823;28;20049;-47
2021/06/17 07:29:53;;;;;;;8.43;3.10;;;;;;;35.88;26.17;94734.97;5053828;28;20052;-50
2021/06/17 07:32:20;;;;;;;5.63;3.13;;;;;;;35.73;26.40;94730.00;5053547;28;20476;-48
2021/06/17 07:34:47;;;;;;;5.93;3.00;;;;;;;36.03;25.47;94731.31;5054086;28;20056;-59
2021/06/17 07:37:15;;;;;;;4.43;3.25;;;;;;;36.28;25.74;94725.00;5053704;28;20519;-46
2021/06/17 07:39:43;;;;;;;3.10;2.70;;;;;;;35.67;25.56;94726.31;5053774;28;20063;-46
2021/06/17 07:42:11;;;;;;;5.82;2.80;;;;;;;36.27;25.01;94723.47;5035597;28;20474;-47
2021/06/17 07:44:39;;;;;;;5.25;2.85;;;;;;;36.59;25.48;94727.78;5051148;28;20053;-46
2021/06/17 07:47:07;;;;;;;3.63;2.92;;;;;;;36.07;25.82;94721.06;5053516;28;20045;-49
2021/06/17 07:49:34;;;;;;;4.78;3.20;;;;;;;35.98;26.51;94722.97;5054553;28;20052;-47
2021/06/17 07:52:01;;;;;;;3.42;2.97;;;;;;;36.48;25.06;94721.97;5054639;28;20456;-46
2021/06/17 07:54:28;;;;;;;5.05;2.90;;;;;;;36.91;24.29;94714.94;5046636;28;20049;-47
2021/06/17 07:56:57;;;;;;;3.55;2.75;;;;;;;36.52;24.55;94717.16;5036772;28;20053;-47
2021/06/17 07:59:25;;;;;;;4.13;2.60;;;;;;;36.92;23.41;94716.44;5054712;28;20052;-47
2021/06/17 08:01:52;;;;;;;2.97;2.58;;;;;;;36.54;24.51;94720.19;5054680;28;20061;-46
2021/06/17 08:04:20;;;;;;;7.47;2.90;;;;;;;36.33;24.76;94712.81;5054410;28;20052;-48
2021/06/17 08:06:47;;;;;;;6.30;2.67;;;;;;;36.14;25.45;94720.03;5054429;28;20052;-47
2021/06/17 08:09:18;;;;;;;4.25;3.08;;;;;;;37.12;23.02;94722.28;5054744;28;20052;-47
2021/06/17 08:11:51;;;;;;;5.63;2.83;;;;;;;36.73;24.72;94716.34;5054549;28;20055;-46
2021/06/17 08:14:21;;;;;;;5.70;3.30;;;;;;;36.61;25.14;94719.91;5053901;28;20376;-47
2021/06/17 08:16:48;;;;;;;4.28;2.75;;;;;;;36.30;25.35;94722.63;5053288;28;20048;-49
2021/06/17 08:19:16;;;;;;;3.30;2.53;;;;;;;36.68;24.63;94719.66;5054461;28;20479;-48
2021/06/17 08:21:43;;;;;;;4.95;2.92;;;;;;;36.29;24.90;94718.34;5043310;28;20057;-49
2021/06/17 08:24:11;;;;;;;4.38;2.80;;;;;;;36.89;24.52;94706.44;5049591;28;20052;-53
2021/06/17 08:26:38;;;;;;;4.40;3.55;;;;;;;36.72;24.47;94714.09;5045969;28;20449;-50
2021/06/17 08:29:05;;;;;;;3.30;2.80;;;;;;;36.46;24.24;94702.63;5053668;28;20057;-56
2021/06/17 08:31:33;;;;;;;3.28;2.72;;;;;;;36.95;23.55;94704.66;5053809;28;20048;-52
2021/06/17 08:34:01;;;;;;;4.18;3.75;;;;;;;36.75;23.27;94708.50;5048799;28;20045;-53
2021/06/17 08:36:28;;;;;;;4.75;2.97;;;;;;;37.07;22.91;94706.53;5034619;28;20046;-51
2021/06/17 08:38:55;;;;;;;4.80;3.53;;;;;;;36.61;23.53;94709.03;5051741;28;20045;-52
2021/06/17 08:41:22;;;;;;;4.13;3.45;;;;;;;36.52;23.18;94708.22;5036548;28;20060;-52
2021/06/17 08:43:52;;;;;;;5.95;3.85;;;;;;;37.06;22.66;94699.56;5053560;28;20045;-52
2021/06/17 08:46:21;;;;;;;3.35;2.50;;;;;;;37.12;22.58;94703.22;5054326;28;20049;-51
2021/06/17 08:48:52;;;;;;;5.10;3.60;;;;;;;36.50;23.35;94703.22;5054149;28;20053;-52
2021/06/17 08:51:19;;;;;;;;;;;;;;;37.27;22.86;94704.19;5053706;28;20044;-53
2021/06/17 08:53:51;;;;;;;4.63;2.22;;;;;;;37.36;22.33;94700.72;5053947;28;19919;-53
2021/06/17 08:56:19;;;;;;;2.83;1.90;;;;;;;37.29;20.95;94690.88;5053141;28;20060;-52
2021/06/17 08:58:46;;;;;;;2.85;1.70;;;;;;;37.46;19.97;94690.56;5054249;28;20048;-54
2021/06/17 09:01:15;;;;;;;2.35;1.77;;;;;;;37.37;20.26;94691.34;5042316;28;20474;-56
2021/06/17 09:04:03;;;;;;;5.38;2.17;;;;;;;37.56;20.56;94686.66;5048584;28;20044;-51
2021/06/17 09:07:08;;;;;;;3.00;1.90;;;;;;;37.87;20.26;94692.75;5033340;28;20076;-51
2021/06/17 09:09:53;;;;;;;7.75;2.08;;;;;;;37.76;19.75;94684.28;5035503;28;20052;-51
2021/06/17 09:12:47;;;;;;;2.70;1.85;;;;;;;37.66;19.61;94683.47;5041743;28;20056;-51
2021/06/17 09:15:55;;;;;;;5.90;4.97;;;;;;;37.76;19.93;94667.94;5064910;28;20451;-53
2021/06/17 09:18:26;;;;;;;39.95;36.22;;;;;;;38.02;18.53;94662.16;5051601;28;20368;-54
2021/06/17 09:21:06;;;;;;;;;;;;;;;37.87;19.93;94670.19;5037127;28;20056;-53
2021/06/17 09:23:44;;;;;;;3.45;2.63;;;;;;;38.01;19.14;94672.31;5039545;28;19912;-53
2021/06/17 09:26:17;;;;;;;4.88;2.20;;;;;;;37.66;19.57;94669.09;5057544;28;20380;-53
2021/06/17 09:28:52;;;;;;;2.67;2.00;;;;;;;37.71;19.72;94671.22;5039985;28;20057;-54
2021/06/17 09:31:30;;;;;;;3.20;2.38;;;;;;;37.53;19.74;94661.06;5057335;28;20052;-53
2021/06/17 09:33:58;;;;;;;2.90;1.77;;;;;;;37.51;19.67;94666.22;5057023;28;20443;-51
2021/06/17 09:36:29;;;;;;;2.55;1.70;;;;;;;37.55;18.98;94669.56;5039926;28;20375;-51
2021/06/17 09:39:04;;;;;;;4.03;1.60;;;;;;;37.69;19.31;94660.00;5039446;28;20329;-53
2021/06/17 09:41:34;;;;;;;4.43;2.15;;;;;;;37.54;20.15;94667.28;5037178;28;20056;-52
2021/06/17 09:44:04;;;;;;;3.93;1.90;;;;;;;37.58;20.02;94652.28;5052504;28;20340;-51
2021/06/17 09:46:51;;;;;;;3.80;1.85;;;;;;;37.18;20.74;94660.53;5055032;28;20053;-52
2021/06/17 09:49:18;;;;;;;5.43;2.00;;;;;;;36.98;21.16;94649.28;5012206;28;20045;-54
2021/06/17 09:51:51;;;;;;;2.78;2.17;;;;;;;37.55;21.42;94657.88;4998171;28;20189;-53
2021/06/17 09:54:23;;;;;;;4.60;1.80;;;;;;;36.96;21.23;94657.91;5014698;28;20046;-51
2021/06/17 09:56:58;;;;;;;2.75;1.90;;;;;;;37.27;20.27;94657.84;5013730;28;20061;-52
2021/06/17 09:59:47;;;;;;;3.05;1.88;;;;;;;37.26;20.26;94653.63;5014013;28;20049;-50
2021/06/17 10:02:31;;;;;;;3.17;1.90;;;;;;;37.43;20.34;94648.63;5014408;28;20053;-54
2021/06/17 10:05:31;;;;;;;5.65;1.70;;;;;;;37.40;19.46;94646.06;5014143;28;20472;-54
2021/06/17 10:07:58;;;;;;;4.63;1.65;;;;;;;37.30;19.47;94643.31;4987705;28;20049;-56
2021/06/17 10:10:32;;;;;;;2.30;1.80;;;;;;;37.58;19.87;94630.47;4998558;28;20050;-50
2021/06/17 10:12:59;;;;;;;2.72;1.50;;;;;;;37.85;18.64;94635.19;5014035;28;20068;-54
2021/06/17 10:15:26;;;;;;;4.03;1.70;;;;;;;37.42;19.37;94632.72;4984439;28;20053;-51
2021/06/17 10:17:54;;;;;;;2.65;1.40;;;;;;;37.61;18.73;94628.78;5024952;28;20049;-52
2021/06/17 10:20:21;;;;;;;3.08;1.90;;;;;;;37.50;20.87;94633.97;5017405;28;20087;-51
2021/06/17 10:22:53;;;;;;;3.33;1.73;;;;;;;37.57;19.52;94634.41;5056119;28;20448;-52
2021/06/17 10:25:24;;;;;;;5.32;2.28;;;;;;;37.91;20.55;94630.63;5038977;28;20056;-53
2021/06/17 10:27:53;;;;;;;3.78;1.60;;;;;;;37.45;19.81;94631.81;5038730;28;20057;-52
2021/06/17 10:30:37;;;;;;;2.10;1.52;;;;;;;37.62;20.08;94630.31;5056336;28;20041;-56
2021/06/17 10:33:04;;;;;;;1.90;1.52;;;;;;;37.03;20.19;94624.19;5056145;28;20371;-54
2021/06/17 10:35:31;;;;;;;4.97;1.88;;;;;;;37.58;19.48;94621.53;5056479;28;20060;-53
2021/06/17 10:38:05;;;;;;;1.88;1.30;;;;;;;37.11;18.93;94617.22;5056119;28;20056;-52
2021/06/17 10:40:35;;;;;;;2.78;1.60;;;;;;;37.63;18.30;94620.91;5056178;28;20057;-53
2021/06/17 10:43:19;;;;;;;2.40;1.48;;;;;;;37.68;19.17;94617.56;5055691;28;20055;-53
2021/06/17 10:45:51;;;;;;;5.47;1.70;;;;;;;37.46;19.48;94615.00;5056025;28;20486;-53
2021/06/17 10:48:25;;;;;;;2.50;1.50;;;;;;;37.60;18.81;94603.50;5055757;28;20045;-51
2021/06/17 10:50:52;;;;;;;3.90;1.40;;;;;;;37.72;19.02;94601.84;5056073;28;20452;-56
2021/06/17 10:53:24;;;;;;;2.33;1.45;;;;;;;37.38;19.20;94600.16;5053603;28;20040;-52
2021/06/17 10:56:18;;;;;;;1.92;1.40;;;;;;;37.50;17.79;94601.25;5018604;28;20061;-51
2021/06/17 10:58:46;;;;;;;2.10;1.50;;;;;;;37.45;19.03;94596.38;5051148;28;20041;-52
2021/06/17 11:01:33;;;;;;;2.85;1.48;;;;;;;37.30;18.35;94594.25;5046988;28;20046;-53
2021/06/17 11:04:20;;;;;;;5.93;1.80;;;;;;;37.49;18.59;94595.03;5047899;28;20041;-53
2021/06/17 11:06:55;;;;;;;3.22;1.25;;;;;;;37.87;17.67;94589.09;5055905;28;20061;-53
2021/06/17 11:09:35;;;;;;;1.83;1.40;;;;;;;37.57;17.69;94590.03;5055637;28;20045;-52
2021/06/17 11:12:05;;;;;;;4.55;1.52;;;;;;;37.15;18.46;94587.84;5055692;28;20049;-53
2021/06/17 11:14:45;;;;;;;2.97;1.48;;;;;;;37.32;18.09;94574.72;5040784;28;20060;-56
2021/06/17 11:17:36;;;;;;;3.10;1.38;;;;;;;37.41;18.48;94587.59;5055180;28;20056;-52
2021/06/17 11:20:29;;;;;;;2.33;1.52;;;;;;;37.64;16.98;94585.00;5046462;28;20045;-53
2021/06/17 11:23:01;;;;;;;4.13;1.60;;;;;;;37.48;18.35;94581.84;5055278;28;20049;-52
2021/06/17 11:25:30;;;;;;;3.00;1.40;;;;;;;37.27;17.77;94584.28;5037960;28;20045;-53
2021/06/17 11:27:57;;;;;;;2.25;1.83;;;;;;;37.48;17.34;94581.84;5055239;28;20056;-51
2021/06/17 11:30:43;;;;;;;2.10;1.70;;;;;;;37.17;18.42;94584.69;5055270;28;20049;-51
2021/06/17 11:33:16;;;;;;;3.00;1.60;;;;;;;37.57;17.86;94579.13;5054346;28;20074;-49
2021/06/17 11:35:48;;;;;;;2.53;1.60;;;;;;;37.53;17.57;94573.06;5055324;28;20054;-51
2021/06/17 11:38:23;;;;;;;3.00;1.40;;;;;;;37.28;18.57;94569.44;5055212;28;20057;-49
2021/06/17 11:40:50;;;;;;;2.22;1.65;;;;;;;37.52;18.45;94574.28;5037476;28;20325;-51
2021/06/17 11:43:28;;;;;;;15.52;13.98;;;;;;;37.66;17.00;94570.91;5036996;28;20748;-50
2021/06/17 11:45:55;;;;;;;3.05;2.50;;;;;;;37.66;17.08;94565.47;5040780;28;20056;-49
2021/06/17 11:48:23;;;;;;;2.22;1.90;;;;;;;37.63;16.27;94558.19;5043383;28;20061;-51
2021/06/17 11:50:53;;;;;;;2.05;1.40;;;;;;;37.63;16.58;94550.03;5035357;28;20045;-52
2021/06/17 11:53:25;;;;;;;2.38;1.80;;;;;;;37.60;17.60;94550.94;5040271;28;20498;-51
2021/06/17 11:55:55;;;;;;;2.30;1.50;;;;;;;38.20;15.99;94558.41;5051813;28;20049;-51